< < Back
Terminal Aerodrome Forecast


Current Version              Previous Versions:   1  2  3  4  5  6  7  8  9  

Terminal Aerodrome Forecast

870
FTUS42 KCAE 012048 AAA
TAFAGS
TAF AMD
KAGS 012048Z 0121/0218 VRB04KT P6SM SCT050
     FM020000 VRB03KT P6SM FEW100
     FM020900 00000KT 5SM BR SCT008 BKN150
     FM021400 21006KT P6SM SCT030 BKN080=

Latest METAR

451
SAUS70 KWBC 012200 RRX
MTRAGS
METAR KAGS 012153Z 18007KT 10SM SCT047 33/22 A2994 RMK AO2 SLP137
T03330217


USA.gov is the U.S. government's official web portal to all federal, state and local government web resources and services.